Dana Point, CA

10:31 PM PDT on October 20, 2014 (GMT -0700)
The Coast | Change Station
CLOSE
Current Station
Personal Weather Station
Location: San Clemente, CA
Elevation: 350 ft
Nearby Weather Stations

Elev 350 ft 33.45 °N, 117.64 °W | Updated 0 second ago

Mostly Cloudy
Mostly Cloudy
64.3 °F
Feels Like 64.3 °F
N
3.0
Wind Variable Wind from ENE
Gusts 5.0 mph

Today
High -- | Low -- °F
--% Chance of Precip.
Yesterday
High -- | Low -- °F
Precip. -- in
6:59 AM 6:10 PM
Waning Crescent, 7% visible
Pressure 29.91 in
Visibility 10.0 miles
Clouds Clear
Dew Point 61 °F
Humidity 89%
Rainfall 0.00 in
Snow Depth Not available.
UV 0 out of 12
Pollen 3.50 out of 12
Air Quality Not available.
Flu Activity Sporadic
METAR KSNA 210453Z 00000KT 10SM CLR 21/16 A2991 RMK AO2 SLP127 T02060161

More Conditions Fewer Conditions

Pressure 29.91 in
Visibility 10.0 miles
Clouds Clear
Dew Point 61 °F
Humidity 89%
Rainfall 0.00 in
Snow Depth Not available.
UV 0 out of 12
Pollen 3.50 out of 12
Air Quality Not available.
Flu Activity Sporadic
METAR KSNA 210453Z 00000KT 10SM CLR 21/16 A2991 RMK AO2 SLP127 T02060161

More Conditions Fewer Conditions

10-Day Weather Forecast

Almanac

Astronomy

Oct. 20, 2014 Rise Set
Actual Time 6:59 AM PDT 6:10 PM PDT
Civil Twilight 6:34 AM PDT 6:36 PM PDT
Nautical Twilight 6:05 AM PDT 7:05 PM PDT
Astronomical Twilight 5:36 AM PDT 7:33 PM PDT
Moon 4:00 AM PDT (10/20) 4:28 PM PDT (10/20)
Length of Visible Light 12h 02m
Length of Day
11h 11m
Tomorrow will be 1m 57s shorter.
Waning Crescent, 7% of the Moon is Illuminated
Oct 21
Waning Crescent
Oct 23
New
Oct 30
First Quarter
Nov 6
Full
Nov 14
Last Quarter

Yesterday's Extremes

State Highs State Lows

Community

WunderPhotos

Upload Photos

1,763,612 photos uploaded!

Nearby

Air Quality

  Air Quality AQ Index Pollutant
Yesterday Good
OZONE
Tuesday Good
PM10
Tuesday Good
OZONE
Tuesday Good
CO
Tuesday Good
NO2

Snow Depth

Station Depth Elevation
Virginia Lakes Ridge 0 in 9200 ft
Leavitt Lake 0 in 9400 ft
Leavitt Meadows 1 in 7200 ft
Sonora Pass 0 in 8800 ft
Summit Meadow 1 in 9122 ft

Earthquake Activity

City Distance Mag. Time & Date
No recent earthquake activity has been reported nearby.
Minimum magnitude displayed is 2.5.

Coastal Water Temperatures

Place Temperature
Santa Monica Pier 70.0 °F
Los Angeles, CA 70.0 °F
La Jolla, CA 71.1 °F

Nearby Weather Stations